3°C Temp
1°C Dewpoint
87% Humidity
Temperature
3 KM/H
2 MPH
2 KTS
Calm
Due North

Wind Speed
Mostly Scattered
Clouds
Pressure 1021.92 (hPa) - 30.18 (in)
Visibility 5.6 (mi) - 9.0 (km)

Current Conditions
LSZA
Location Lugano 50 (km)
Metar :LSZA 271820Z AUTO VRB02KT 9000 SCT080 03/01 Q1022
Fri 27th November 19:20 pm

Airport
  Metar Aviation API Data Provided by https://www.checkwx.com/ PHP scripts by weather34.com ©2020